createdAt,value
2018-07-19T00:01:58.867Z,101139.00
2018-07-19T00:04:28.119Z,101142.00
2018-07-19T00:06:57.494Z,101146.00
2018-07-19T00:09:26.874Z,101146.00
2018-07-19T00:11:56.189Z,101141.00
2018-07-19T00:14:25.547Z,101141.00
2018-07-19T00:16:54.823Z,101148.00
2018-07-19T00:19:24.168Z,101142.00
2018-07-19T00:21:53.472Z,101148.00
2018-07-19T00:24:24.828Z,101111.00
2018-07-19T00:26:54.154Z,101145.00
2018-07-19T00:29:23.475Z,101152.00
2018-07-19T00:31:52.751Z,101155.00
2018-07-19T00:34:22.023Z,101156.00
2018-07-19T00:36:51.372Z,101148.00
2018-07-19T00:39:20.615Z,101155.00
2018-07-19T00:41:49.856Z,101150.00
2018-07-19T00:44:19.181Z,101149.00
2018-07-19T00:46:48.695Z,101154.00
2018-07-19T00:49:18.865Z,101146.00
2018-07-19T00:51:48.415Z,101143.00
2018-07-19T00:54:17.887Z,101147.00
2018-07-19T00:56:47.156Z,101160.00
2018-07-19T00:59:16.990Z,101143.00
2018-07-19T01:01:46.335Z,101149.00
2018-07-19T01:04:15.693Z,101144.00
2018-07-19T01:06:44.907Z,101145.00
2018-07-19T01:09:14.291Z,101137.00
2018-07-19T01:11:43.559Z,101143.00
2018-07-19T01:14:12.831Z,101146.00
2018-07-19T01:16:42.120Z,101144.00
2018-07-19T01:19:11.436Z,101151.00
2018-07-19T01:21:40.698Z,101144.00
2018-07-19T01:24:09.931Z,101146.00
2018-07-19T01:26:39.190Z,101143.00
2018-07-19T01:29:08.961Z,101141.00
2018-07-19T01:31:38.428Z,101137.00
2018-07-19T01:34:07.731Z,101134.00
2018-07-19T01:36:44.195Z,101133.00
2018-07-19T01:39:13.419Z,101133.00
2018-07-19T01:42:28.079Z,101126.00
2018-07-19T01:44:57.342Z,101131.00
2018-07-19T01:47:26.607Z,101123.00
2018-07-19T01:49:56.199Z,101133.00
2018-07-19T01:52:25.479Z,101130.00
2018-07-19T01:54:54.746Z,101126.00
2018-07-19T01:57:24.066Z,101125.00
2018-07-19T01:59:58.988Z,101122.00
2018-07-19T02:02:28.230Z,101131.00
2018-07-19T02:04:57.504Z,101129.00
2018-07-19T02:07:26.745Z,101125.00
2018-07-19T02:09:56.094Z,101125.00
2018-07-19T02:12:25.505Z,101122.00
2018-07-19T02:14:55.003Z,101126.00
2018-07-19T02:17:24.561Z,101128.00
2018-07-19T02:19:53.786Z,101125.00
2018-07-19T02:22:23.087Z,101137.00
2018-07-19T02:24:58.319Z,101128.00
2018-07-19T02:27:27.606Z,101125.00
2018-07-19T02:29:56.847Z,101129.00
2018-07-19T02:32:26.158Z,101124.00
2018-07-19T02:34:55.832Z,101125.00
2018-07-19T02:37:25.075Z,101127.00
2018-07-19T02:39:54.358Z,101126.00
2018-07-19T02:42:23.986Z,101129.00
2018-07-19T02:44:53.628Z,101125.00
2018-07-19T02:47:22.871Z,101124.00
2018-07-19T02:49:52.123Z,101124.00
2018-07-19T02:52:21.390Z,101119.00
2018-07-19T02:54:50.630Z,101123.00
2018-07-19T02:57:19.883Z,101126.00
2018-07-19T02:59:49.102Z,101128.00
2018-07-19T03:02:18.917Z,101128.00
2018-07-19T03:04:48.259Z,101126.00
2018-07-19T03:07:17.494Z,101133.00
2018-07-19T03:09:46.803Z,101140.00
2018-07-19T03:12:16.064Z,101135.00
2018-07-19T03:14:45.507Z,101124.00
2018-07-19T03:17:14.691Z,101133.00
2018-07-19T03:19:44.300Z,101129.00
2018-07-19T03:22:13.531Z,101140.00
2018-07-19T03:24:42.770Z,101130.00
2018-07-19T03:27:12.253Z,101139.00
2018-07-19T03:29:41.655Z,101143.00
2018-07-19T03:32:11.552Z,101137.00
2018-07-19T03:34:40.806Z,101139.00
2018-07-19T03:37:10.043Z,101138.00
2018-07-19T03:39:39.347Z,101137.00
2018-07-19T03:42:08.631Z,101148.00
2018-07-19T03:44:37.838Z,101137.00
2018-07-19T03:47:07.062Z,101133.00
2018-07-19T03:49:36.310Z,101140.00
2018-07-19T03:52:06.118Z,101137.00
2018-07-19T03:54:35.772Z,101134.00
2018-07-19T03:57:05.283Z,101134.00
2018-07-19T03:59:35.086Z,101133.00
2018-07-19T04:02:04.347Z,101141.00
2018-07-19T04:04:34.013Z,101129.00
2018-07-19T04:07:07.514Z,101136.00
2018-07-19T04:09:36.827Z,101135.00
2018-07-19T04:12:06.131Z,101132.00
2018-07-19T04:14:35.344Z,101132.00
2018-07-19T04:17:04.848Z,101130.00
2018-07-19T04:19:34.063Z,101137.00
2018-07-19T04:22:03.318Z,101139.00
2018-07-19T04:24:32.640Z,101138.00
2018-07-19T04:27:01.886Z,101139.00
2018-07-19T04:29:39.987Z,101141.00
2018-07-19T04:32:09.243Z,101143.00
2018-07-19T04:34:38.704Z,101142.00
2018-07-19T04:37:08.235Z,101138.00
2018-07-19T04:39:47.636Z,101137.00
2018-07-19T04:42:16.930Z,101131.00
2018-07-19T04:44:46.206Z,101141.00
2018-07-19T04:47:15.419Z,101143.00
2018-07-19T04:49:45.081Z,101135.00
2018-07-19T04:52:14.676Z,101138.00
2018-07-19T04:54:44.155Z,101137.00
2018-07-19T04:57:23.330Z,101141.00
2018-07-19T04:59:52.611Z,101145.00
2018-07-19T05:02:22.282Z,101138.00
2018-07-19T05:04:52.156Z,101146.00
2018-07-19T05:07:21.449Z,101141.00
2018-07-19T05:09:50.731Z,101146.00
2018-07-19T05:12:20.037Z,101146.00
2018-07-19T05:14:49.326Z,101152.00
2018-07-19T05:17:18.583Z,101155.00
2018-07-19T05:19:47.881Z,101154.00
2018-07-19T05:22:17.147Z,101154.00
2018-07-19T05:24:46.409Z,101155.00
2018-07-19T05:27:15.675Z,101150.00
2018-07-19T05:29:44.962Z,101151.00
2018-07-19T05:32:14.213Z,101153.00
2018-07-19T05:34:43.523Z,101144.00
2018-07-19T05:37:13.071Z,101146.00
2018-07-19T05:39:42.339Z,101147.00
2018-07-19T05:42:11.803Z,101152.00
2018-07-19T05:44:41.330Z,101157.00
2018-07-19T05:47:10.571Z,101154.00
2018-07-19T05:49:39.816Z,101161.00
2018-07-19T05:52:09.623Z,101152.00
2018-07-19T05:54:39.004Z,101155.00
2018-07-19T05:57:08.880Z,101148.00
2018-07-19T05:59:38.192Z,101158.00
2018-07-19T06:02:08.363Z,101150.00
2018-07-19T06:04:37.930Z,101153.00
2018-07-19T06:07:07.719Z,101154.00
2018-07-19T06:09:37.425Z,101161.00
2018-07-19T06:12:06.783Z,101154.00
2018-07-19T06:14:36.041Z,101147.00
2018-07-19T06:17:15.538Z,101145.00
2018-07-19T06:19:44.884Z,101147.00
2018-07-19T06:22:14.135Z,101156.00
2018-07-19T06:24:43.847Z,101161.00
2018-07-19T06:27:13.083Z,101158.00
2018-07-19T06:29:42.332Z,101160.00
2018-07-19T06:32:11.856Z,101155.00
2018-07-19T06:34:41.168Z,101157.00
2018-07-19T06:37:10.428Z,101150.00
2018-07-19T06:39:39.639Z,101145.00
2018-07-19T06:42:09.407Z,101145.00
2018-07-19T06:44:38.765Z,101140.00
2018-07-19T06:47:08.552Z,101140.00
2018-07-19T06:49:40.860Z,101137.00
2018-07-19T06:52:10.151Z,101141.00
2018-07-19T06:54:39.437Z,101131.00
2018-07-19T06:57:09.167Z,101133.00
2018-07-19T06:59:38.661Z,101135.00
2018-07-19T07:02:08.383Z,101139.00
2018-07-19T07:04:37.900Z,101145.00
2018-07-19T07:07:07.304Z,101145.00
2018-07-19T07:09:37.130Z,101143.00
2018-07-19T07:12:06.960Z,101132.00
2018-07-19T07:14:36.210Z,101142.00
2018-07-19T07:17:05.791Z,101146.00
2018-07-19T07:19:35.112Z,101149.00
2018-07-19T07:22:04.446Z,101142.00
2018-07-19T07:24:34.297Z,101148.00
2018-07-19T07:27:03.551Z,101147.00
2018-07-19T07:29:33.010Z,101155.00
2018-07-19T07:32:02.264Z,101147.00
2018-07-19T07:34:31.495Z,101153.00
2018-07-19T07:37:00.748Z,101148.00
2018-07-19T07:39:30.036Z,101155.00
2018-07-19T07:41:59.268Z,101159.00
2018-07-19T07:44:28.528Z,101162.00
2018-07-19T07:46:58.312Z,101157.00
2018-07-19T07:49:28.622Z,101161.00
2018-07-19T07:51:58.239Z,101168.00
2018-07-19T07:54:27.818Z,101165.00
2018-07-19T07:56:57.079Z,101164.00
2018-07-19T07:59:26.705Z,101159.00
2018-07-19T08:01:56.190Z,101168.00
2018-07-19T08:04:26.007Z,101170.00
2018-07-19T08:06:55.328Z,101166.00
2018-07-19T08:09:25.375Z,101170.00
2018-07-19T08:11:54.889Z,101169.00
2018-07-19T08:14:24.500Z,101168.00
2018-07-19T08:16:53.780Z,101171.00
2018-07-19T08:19:22.969Z,101166.00
2018-07-19T08:21:52.224Z,101174.00
2018-07-19T08:24:21.500Z,101174.00
2018-07-19T08:26:50.790Z,101173.00
2018-07-19T08:29:20.080Z,101169.00
2018-07-19T08:31:49.359Z,101157.00
2018-07-19T08:34:18.651Z,101165.00
2018-07-19T08:36:47.954Z,101162.00
2018-07-19T08:39:17.251Z,101165.00
2018-07-19T08:41:46.811Z,101156.00
2018-07-19T08:44:16.042Z,101165.00
2018-07-19T08:46:45.589Z,101161.00
2018-07-19T08:49:14.927Z,101162.00
2018-07-19T08:51:44.203Z,101159.00
2018-07-19T08:54:13.942Z,101158.00
2018-07-19T08:56:44.195Z,101157.00
2018-07-19T08:59:13.415Z,101155.00
2018-07-19T09:01:42.659Z,101149.00
2018-07-19T09:04:12.444Z,101152.00
2018-07-19T09:06:41.687Z,101149.00
2018-07-19T09:09:11.170Z,101147.00
2018-07-19T09:11:40.455Z,101152.00
2018-07-19T09:14:09.824Z,101150.00
2018-07-19T09:16:39.039Z,101137.00
2018-07-19T09:19:08.287Z,101144.00
2018-07-19T09:21:42.226Z,101141.00
2018-07-19T09:24:11.473Z,101136.00
2018-07-19T09:26:40.766Z,101136.00
2018-07-19T09:29:10.028Z,101133.00
2018-07-19T09:31:39.500Z,101139.00
2018-07-19T09:34:08.910Z,101137.00
2018-07-19T09:36:38.164Z,101135.00
2018-07-19T09:39:11.417Z,101131.00
2018-07-19T09:41:41.444Z,101134.00
2018-07-19T09:44:10.892Z,101142.00
2018-07-19T09:46:40.430Z,101132.00
2018-07-19T09:49:09.699Z,101131.00
2018-07-19T09:51:45.719Z,101126.00
2018-07-19T09:54:31.873Z,101128.00
2018-07-19T09:57:01.136Z,101137.00
2018-07-19T09:59:30.344Z,101131.00
2018-07-19T10:01:59.669Z,101124.00
2018-07-19T10:04:29.280Z,101117.00
2018-07-19T10:06:58.546Z,101121.00
2018-07-19T10:09:28.332Z,101123.00
2018-07-19T10:11:57.670Z,101120.00
2018-07-19T10:14:26.901Z,101115.00
2018-07-19T10:16:56.143Z,101110.00
2018-07-19T10:19:25.449Z,101117.00
2018-07-19T10:21:55.583Z,101113.00
2018-07-19T10:24:24.981Z,101115.00
2018-07-19T10:26:54.604Z,101111.00
2018-07-19T10:29:24.479Z,101106.00
2018-07-19T10:31:53.799Z,101111.00
2018-07-19T10:34:23.043Z,101105.00
2018-07-19T10:36:52.341Z,101113.00
2018-07-19T10:39:21.903Z,101100.00
2018-07-19T10:41:51.356Z,101106.00
2018-07-19T10:44:21.198Z,101104.00
2018-07-19T10:46:50.414Z,101103.00
2018-07-19T10:49:20.025Z,101094.00
2018-07-19T10:51:49.691Z,101099.00
2018-07-19T10:54:18.884Z,101094.00
2018-07-19T10:56:48.161Z,101092.00
2018-07-19T10:59:17.811Z,101100.00
2018-07-19T11:01:47.074Z,101094.00
2018-07-19T11:04:16.451Z,101103.00
2018-07-19T11:06:45.775Z,101088.00
2018-07-19T11:09:15.075Z,101088.00
2018-07-19T11:11:44.271Z,101083.00
2018-07-19T11:14:13.498Z,101088.00
2018-07-19T11:16:43.485Z,101084.00
2018-07-19T11:19:12.731Z,101082.00
2018-07-19T11:21:42.382Z,101086.00
2018-07-19T11:24:11.977Z,101086.00
2018-07-19T11:26:41.651Z,101086.00
2018-07-19T11:29:11.017Z,101079.00
2018-07-19T11:31:40.251Z,101076.00
2018-07-19T11:34:09.511Z,101078.00
2018-07-19T11:36:39.284Z,101080.00
2018-07-19T11:39:18.488Z,101070.00
2018-07-19T11:41:48.375Z,101064.00
2018-07-19T11:44:17.716Z,101068.00
2018-07-19T11:46:47.318Z,101057.00
2018-07-19T11:49:16.626Z,101056.00
2018-07-19T11:51:45.904Z,101059.00
2018-07-19T11:54:15.186Z,101057.00
2018-07-19T11:56:44.487Z,101050.00
2018-07-19T11:59:13.883Z,101044.00
2018-07-19T12:01:43.379Z,101049.00
2018-07-19T12:04:13.139Z,101037.00
2018-07-19T12:06:42.409Z,101041.00
2018-07-19T12:09:12.442Z,101045.00
2018-07-19T12:11:41.834Z,101038.00
2018-07-19T12:14:11.166Z,101041.00
2018-07-19T12:16:41.340Z,101038.00
2018-07-19T12:19:10.619Z,101034.00
2018-07-19T12:21:39.944Z,101035.00
2018-07-19T12:24:09.563Z,101029.00
2018-07-19T12:26:38.871Z,101027.00
2018-07-19T12:29:08.083Z,101028.00
2018-07-19T12:31:37.936Z,101026.00
2018-07-19T12:34:07.554Z,101029.00
2018-07-19T12:36:36.847Z,101022.00
2018-07-19T12:39:10.200Z,101021.00
2018-07-19T12:41:39.483Z,101024.00
2018-07-19T12:44:08.894Z,101017.00
2018-07-19T12:46:38.883Z,101018.00
2018-07-19T12:49:08.463Z,101014.00
2018-07-19T12:51:38.195Z,101020.00
2018-07-19T12:54:07.988Z,101019.00
2018-07-19T12:56:37.524Z,101019.00
2018-07-19T12:59:06.805Z,101007.00
2018-07-19T13:01:36.131Z,101005.00
2018-07-19T13:04:06.600Z,101002.00
2018-07-19T13:06:35.903Z,101006.00
2018-07-19T13:09:08.107Z,101008.00
2018-07-19T13:11:37.786Z,101004.00
2018-07-19T13:14:08.188Z,101013.00
2018-07-19T13:16:37.639Z,101004.00
2018-07-19T13:19:06.910Z,101011.00
2018-07-19T13:21:36.414Z,101003.00
2018-07-19T13:24:06.145Z,101009.00
2018-07-19T13:26:35.720Z,101010.00
2018-07-19T13:29:05.019Z,101013.00
2018-07-19T13:31:34.267Z,101011.00
2018-07-19T13:34:03.551Z,101009.00
2018-07-19T13:36:32.925Z,101016.00
2018-07-19T13:39:02.482Z,101007.00
2018-07-19T13:41:31.809Z,101011.00
2018-07-19T13:44:01.068Z,101014.00
2018-07-19T13:46:31.407Z,101003.00
2018-07-19T13:49:00.760Z,101002.00
2018-07-19T13:51:29.969Z,101001.00
2018-07-19T13:54:19.421Z,101006.00
2018-07-19T13:56:48.989Z,101005.00
2018-07-19T13:59:18.466Z,101002.00
2018-07-19T14:01:50.325Z,100992.00
2018-07-19T14:04:19.935Z,100993.00
2018-07-19T14:06:49.495Z,100991.00
2018-07-19T14:09:18.808Z,100987.00
2018-07-19T14:11:48.144Z,100999.00
2018-07-19T14:14:17.436Z,100995.00
2018-07-19T14:16:46.665Z,100995.00
2018-07-19T14:19:16.039Z,100989.00
2018-07-19T14:21:45.563Z,100985.00
2018-07-19T14:24:15.159Z,100984.00
2018-07-19T14:26:47.795Z,100986.00
2018-07-19T14:29:17.047Z,100978.00
2018-07-19T14:31:47.206Z,100971.00
2018-07-19T14:34:16.443Z,100981.00
2018-07-19T14:36:47.807Z,100985.00
2018-07-19T14:39:17.119Z,100979.00
2018-07-19T14:41:46.389Z,100980.00
2018-07-19T14:44:15.998Z,100975.00
2018-07-19T14:46:45.271Z,100966.00
2018-07-19T14:49:15.048Z,100965.00
2018-07-19T14:51:45.613Z,100968.00
2018-07-19T14:54:16.994Z,100967.00
2018-07-19T14:57:02.355Z,100959.00
2018-07-19T14:59:31.613Z,100960.00
2018-07-19T15:02:00.987Z,100960.00
2018-07-19T15:04:32.663Z,100952.00
2018-07-19T15:07:01.935Z,100950.00
2018-07-19T15:09:45.613Z,100953.00
2018-07-19T15:12:14.908Z,100948.00
2018-07-19T15:14:44.413Z,100948.00
2018-07-19T15:17:13.767Z,100938.00
2018-07-19T15:19:43.196Z,100942.00
2018-07-19T15:22:12.826Z,100941.00
2018-07-19T15:24:43.056Z,100942.00
2018-07-19T15:27:12.508Z,100936.00
2018-07-19T15:29:41.811Z,100930.00
2018-07-19T15:32:11.348Z,100935.00
2018-07-19T15:34:40.619Z,100926.00
2018-07-19T15:37:09.859Z,100936.00
2018-07-19T15:39:39.260Z,100930.00
2018-07-19T15:42:11.927Z,100931.00
2018-07-19T15:44:41.232Z,100929.00
2018-07-19T15:47:10.525Z,100914.00
2018-07-19T15:49:40.480Z,100932.00
2018-07-19T15:52:10.138Z,100923.00
2018-07-19T15:54:39.385Z,100927.00
2018-07-19T15:57:08.912Z,100925.00
2018-07-19T15:59:38.202Z,100918.00
2018-07-19T16:02:07.884Z,100919.00
2018-07-19T16:04:37.090Z,100910.00
2018-07-19T16:07:06.351Z,100913.00
2018-07-19T16:09:35.643Z,100908.00
2018-07-19T16:12:04.892Z,100914.00
2018-07-19T16:14:34.155Z,100914.00
2018-07-19T16:17:03.423Z,100903.00
2018-07-19T16:19:32.734Z,100901.00
2018-07-19T16:22:02.100Z,100906.00
2018-07-19T16:24:31.323Z,100897.00
2018-07-19T16:27:00.648Z,100897.00
2018-07-19T16:29:29.877Z,100894.00
2018-07-19T16:31:59.127Z,100891.00
2018-07-19T16:34:28.398Z,100884.00
2018-07-19T16:36:57.604Z,100894.00
2018-07-19T16:39:26.831Z,100881.00
2018-07-19T16:41:56.051Z,100879.00
2018-07-19T16:44:25.352Z,100878.00
2018-07-19T16:46:54.599Z,100879.00
2018-07-19T16:49:23.827Z,100883.00
2018-07-19T16:51:53.104Z,100885.00
2018-07-19T16:54:22.310Z,100880.00
2018-07-19T16:56:51.802Z,100877.00
2018-07-19T16:59:20.998Z,100872.00
2018-07-19T17:01:50.234Z,100873.00
2018-07-19T17:04:19.483Z,100870.00
2018-07-19T17:06:48.663Z,100871.00
2018-07-19T17:09:17.935Z,100865.00
2018-07-19T17:11:47.191Z,100854.00
2018-07-19T17:14:16.463Z,100865.00
2018-07-19T17:16:45.903Z,100858.00
2018-07-19T17:19:15.267Z,100865.00
2018-07-19T17:21:44.511Z,100859.00
2018-07-19T17:24:13.758Z,100860.00
2018-07-19T17:26:42.981Z,100858.00
2018-07-19T17:29:12.250Z,100857.00
2018-07-19T17:31:41.563Z,100849.00
2018-07-19T17:34:10.835Z,100855.00
2018-07-19T17:36:40.131Z,100860.00
2018-07-19T17:39:11.706Z,100852.00
2018-07-19T17:41:42.346Z,100850.00
2018-07-19T17:44:11.588Z,100851.00
2018-07-19T17:46:40.799Z,100850.00
2018-07-19T17:49:10.105Z,100846.00
2018-07-19T17:51:39.333Z,100837.00
2018-07-19T17:54:08.623Z,100847.00
2018-07-19T17:56:37.907Z,100843.00
2018-07-19T17:59:07.143Z,100844.00
2018-07-19T18:01:36.338Z,100844.00
2018-07-19T18:04:05.612Z,100844.00
2018-07-19T18:06:34.923Z,100838.00
2018-07-19T18:09:06.009Z,100835.00
2018-07-19T18:11:35.340Z,100837.00
2018-07-19T18:14:04.664Z,100839.00
2018-07-19T18:16:38.313Z,100833.00
2018-07-19T18:19:07.742Z,100836.00
2018-07-19T18:21:37.016Z,100834.00
2018-07-19T18:24:06.768Z,100831.00
2018-07-19T18:26:36.098Z,100832.00
2018-07-19T18:29:05.402Z,100828.00
2018-07-19T18:31:34.707Z,100826.00
2018-07-19T18:34:04.054Z,100827.00
2018-07-19T18:36:33.558Z,100824.00
2018-07-19T18:39:02.820Z,100823.00
2018-07-19T18:41:32.089Z,100825.00
2018-07-19T18:44:01.375Z,100823.00
2018-07-19T18:46:30.652Z,100827.00
2018-07-19T18:48:59.944Z,100823.00
2018-07-19T18:51:29.248Z,100830.00
2018-07-19T18:53:58.858Z,100826.00
2018-07-19T18:56:31.610Z,100837.00
2018-07-19T18:59:01.003Z,100825.00
2018-07-19T19:01:30.304Z,100825.00
2018-07-19T19:03:59.962Z,100829.00
2018-07-19T19:06:31.109Z,100833.00
2018-07-19T19:09:06.868Z,100826.00
2018-07-19T19:11:36.220Z,100833.00
2018-07-19T19:14:05.701Z,100834.00
2018-07-19T19:16:35.012Z,100820.00
2018-07-19T19:19:04.515Z,100829.00
2018-07-19T19:21:34.153Z,100825.00
2018-07-19T19:24:04.513Z,100831.00
2018-07-19T19:26:33.916Z,100832.00
2018-07-19T19:29:03.174Z,100830.00
2018-07-19T19:31:32.538Z,100844.00
2018-07-19T19:34:01.804Z,100834.00
2018-07-19T19:36:31.074Z,100845.00
2018-07-19T19:39:00.525Z,100843.00
2018-07-19T19:41:29.839Z,100845.00
2018-07-19T19:43:59.231Z,100847.00
2018-07-19T19:46:29.876Z,100848.00
2018-07-19T19:48:59.166Z,100844.00
2018-07-19T19:51:28.575Z,100833.00
2018-07-19T19:53:57.862Z,100836.00
2018-07-19T19:56:27.121Z,100844.00
2018-07-19T19:58:56.370Z,100844.00
2018-07-19T20:01:26.756Z,100843.00
2018-07-19T20:03:56.060Z,100837.00
2018-07-19T20:06:25.931Z,100845.00
2018-07-19T20:08:55.558Z,100839.00
2018-07-19T20:11:25.179Z,100836.00
2018-07-19T20:13:54.813Z,100831.00
2018-07-19T20:16:24.279Z,100832.00
2018-07-19T20:18:53.857Z,100831.00
2018-07-19T20:21:23.436Z,100837.00
2018-07-19T20:23:52.771Z,100846.00
2018-07-19T20:26:22.054Z,100839.00
2018-07-19T20:28:54.471Z,100843.00
2018-07-19T20:31:24.676Z,100849.00
2018-07-19T20:33:53.924Z,100844.00
2018-07-19T20:36:23.488Z,100849.00
2018-07-19T20:38:53.139Z,100853.00
2018-07-19T20:41:22.864Z,100848.00
2018-07-19T20:43:52.442Z,100850.00
2018-07-19T20:46:21.672Z,100848.00
2018-07-19T20:48:51.744Z,100845.00
2018-07-19T20:51:21.543Z,100852.00
2018-07-19T20:53:50.787Z,100848.00
2018-07-19T20:56:20.460Z,100857.00
2018-07-19T20:58:49.763Z,100851.00
2018-07-19T21:01:22.603Z,100848.00
2018-07-19T21:03:51.887Z,100853.00
2018-07-19T21:06:21.612Z,100867.00
2018-07-19T21:08:51.219Z,100869.00
2018-07-19T21:11:20.426Z,100875.00
2018-07-19T21:13:49.737Z,100870.00
2018-07-19T21:16:18.954Z,100865.00
2018-07-19T21:18:49.167Z,100870.00
2018-07-19T21:21:19.016Z,100859.00
2018-07-19T21:23:48.215Z,100866.00
2018-07-19T21:26:17.428Z,100862.00
2018-07-19T21:28:47.680Z,100858.00
2018-07-19T21:31:16.834Z,100868.00
2018-07-19T21:33:46.336Z,100877.00
2018-07-19T21:36:15.512Z,100878.00
2018-07-19T21:38:45.498Z,100877.00
2018-07-19T21:41:14.716Z,100875.00
2018-07-19T21:43:43.955Z,100873.00
2018-07-19T21:46:13.252Z,100880.00
2018-07-19T21:48:42.536Z,100881.00
2018-07-19T21:51:11.827Z,100871.00
2018-07-19T21:53:41.028Z,100876.00
2018-07-19T21:56:10.404Z,100873.00
2018-07-19T21:58:39.634Z,100877.00
2018-07-19T22:01:12.511Z,100873.00
2018-07-19T22:03:41.727Z,100881.00
2018-07-19T22:06:10.967Z,100881.00
2018-07-19T22:08:40.588Z,100884.00
2018-07-19T22:11:10.076Z,100879.00
2018-07-19T22:13:40.380Z,100886.00
2018-07-19T22:16:09.595Z,100885.00
2018-07-19T22:18:39.115Z,100874.00
2018-07-19T22:21:08.368Z,100879.00
2018-07-19T22:23:37.709Z,100877.00
2018-07-19T22:26:06.930Z,100870.00
2018-07-19T22:28:36.097Z,100876.00
2018-07-19T22:31:05.627Z,100877.00
2018-07-19T22:33:35.202Z,100876.00
2018-07-19T22:36:04.424Z,100882.00
2018-07-19T22:38:33.988Z,100879.00
2018-07-19T22:41:03.180Z,100884.00
2018-07-19T22:43:32.669Z,100881.00
2018-07-19T22:46:02.296Z,100885.00
2018-07-19T22:48:31.485Z,100889.00
2018-07-19T22:51:00.719Z,100885.00
2018-07-19T22:53:29.973Z,100882.00
2018-07-19T22:55:59.704Z,100889.00
2018-07-19T22:58:28.971Z,100880.00
2018-07-19T23:00:58.210Z,100876.00
2018-07-19T23:03:27.503Z,100874.00
2018-07-19T23:06:08.496Z,100875.00
2018-07-19T23:08:37.726Z,100875.00
2018-07-19T23:11:06.947Z,100882.00
2018-07-19T23:13:36.268Z,100881.00
2018-07-19T23:16:05.691Z,100886.00
2018-07-19T23:18:34.986Z,100883.00
2018-07-19T23:21:04.634Z,100883.00
2018-07-19T23:23:33.846Z,100889.00
2018-07-19T23:26:03.219Z,100885.00
2018-07-19T23:28:32.496Z,100884.00
2018-07-19T23:31:02.336Z,100884.00
2018-07-19T23:33:32.371Z,100887.00
2018-07-19T23:36:05.456Z,100882.00
2018-07-19T23:38:38.842Z,100883.00
2018-07-19T23:41:12.661Z,100880.00
2018-07-19T23:43:44.688Z,100873.00
2018-07-19T23:46:18.900Z,100876.00
2018-07-19T23:48:48.347Z,100878.00
2018-07-19T23:51:18.339Z,100871.00
2018-07-19T23:53:47.550Z,100862.00
2018-07-19T23:56:16.810Z,100873.00
2018-07-19T23:58:46.060Z,100866.00
